Wahpeton, MN

8:05 AM CDT on June 25, 2017 (GMT -0500)
Stern

Weather History for KBWP - May, 2013

Change the Weather History Date:

Monday, May 13, 2013

  Actual Average (KFFM) Record (KFFM)
Temperature  
Mean Temperature 68 °F -  
Max Temperature 89 °F 65 °F 91 °F (2007)
Min Temperature 46 °F 41 °F 26 °F (1953)
Cooling Degree Days 2    
Growing Degree Days 18 (Base 50)    
Moisture  
Dew Point 29 °F    
Average Humidity 28    
Maximum Humidity 39    
Minimum Humidity 12    
Precipitation  
Precipitation 0.00 in - - ()
Sea Level Pressure  
Sea Level Pressure 29.78 in    
Wind  
Wind Speed 15 mph (SSW)    
Max Wind Speed 30 mph    
Max Gust Speed 37 mph    
Visibility 10 miles    
Events      
Averages and records for this station are not official NWS values.
T = Trace of Precipitation, MM = Missing Value Source: NWS Daily Summary

Daily Weather History Graph

Daily Weather History Graph

Search for Another Location

Airport or City:

Trip Planner

Search our weather history database for the weather conditions in past years. The results will help you decide how hot, cold, wet, or windy it might be!

Date:

Astronomy

May. 13, 2013 Rise Set
Actual Time 5:55 AM CDT 8:50 PM CDT
Civil Twilight 5:20 AM CDT 9:25 PM CDT
Nautical Twilight 4:35 AM CDT 10:10 PM CDT
Astronomical Twilight 3:42 AM CDT 11:04 PM CDT
Moon 8:41 AM CDT (5/13) No Moon Set
Length of Visible Light 16h 05m
Length of Day
14h 55m
Waxing Crescent, 12% of the Moon is Illuminated
May 13
Waxing Crescent
May 17
First Quarter
May 24
Full
May 31
Last Quarter
Jun 8
New

Hourly Weather History & Observations

Time (CDT) Temp. Windchill Dew Point Humidity Pressure Visibility Wind Dir Wind Speed Gust Speed Precip Events Conditions
12:15 AM 48.2 °F - 19.4 °F 32% 30.02 in 10.0 mi SE 11.5 mph - N/A   Clear
12:35 AM 48.2 °F - 21.2 °F 34% 30.03 in 10.0 mi SE 11.5 mph - N/A   Clear
12:55 AM 46.4 °F 41.1 °F 21.2 °F 37% 30.03 in 10.0 mi SE 11.5 mph - N/A   Clear
1:15 AM 46.4 °F 41.5 °F 21.2 °F 37% 30.02 in 10.0 mi SSE 10.4 mph - N/A   Clear
1:35 AM 46.4 °F 40.7 °F 21.2 °F 37% 30.02 in 10.0 mi SSE 12.7 mph - N/A   Clear
1:55 AM 46.4 °F 40.7 °F 21.2 °F 37% 30.01 in 10.0 mi SSE 12.7 mph - N/A   Clear
2:15 AM 46.4 °F 40.4 °F 21.2 °F 37% 30.01 in 10.0 mi SSE 13.8 mph - N/A   Clear
2:35 AM 46.4 °F 41.1 °F 21.2 °F 37% 30.00 in 10.0 mi SSE 11.5 mph - N/A   Clear
2:55 AM 46.4 °F 40.4 °F 21.2 °F 37% 29.99 in 10.0 mi SSE 13.8 mph - N/A   Scattered Clouds
3:15 AM 46.4 °F 41.1 °F 21.2 °F 37% 30.00 in 10.0 mi SSE 11.5 mph 17.3 mph N/A   Mostly Cloudy
3:35 AM 46.4 °F 41.1 °F 21.2 °F 37% 29.99 in 10.0 mi SSE 11.5 mph - N/A   Scattered Clouds
3:55 AM 46.4 °F 40.7 °F 21.2 °F 37% 29.99 in 10.0 mi SSE 12.7 mph - N/A   Scattered Clouds
4:15 AM 46.4 °F 40.7 °F 21.2 °F 37% 29.99 in 10.0 mi SSE 12.7 mph - N/A   Mostly Cloudy
4:35 AM 48.2 °F - 21.2 °F 34% 29.99 in 10.0 mi SSE 12.7 mph - N/A   Scattered Clouds
4:55 AM 48.2 °F - 21.2 °F 34% 29.98 in 10.0 mi SSE 13.8 mph - N/A   Mostly Cloudy
5:15 AM 48.2 °F - 19.4 °F 32% 29.96 in 10.0 mi SSE 15.0 mph - N/A   Scattered Clouds
5:35 AM 48.2 °F - 21.2 °F 34% 29.96 in 10.0 mi SSE 16.1 mph - N/A   Mostly Cloudy
5:55 AM 48.2 °F - 21.2 °F 34% 29.95 in 10.0 mi SSE 16.1 mph - N/A   Scattered Clouds
6:15 AM 48.2 °F - 19.4 °F 32% 29.94 in 10.0 mi SSE 17.3 mph 20.7 mph N/A   Scattered Clouds
6:35 AM 50.0 °F - 21.2 °F 32% 29.93 in 10.0 mi SSE 13.8 mph - N/A   Scattered Clouds
6:55 AM 50.0 °F - 21.2 °F 32% 29.92 in 10.0 mi SSE 16.1 mph - N/A   Scattered Clouds
7:15 AM 50.0 °F - 21.2 °F 32% 29.90 in 10.0 mi SSE 18.4 mph - N/A   Mostly Cloudy
7:35 AM 50.0 °F - 23.0 °F 35% 29.87 in 10.0 mi SSE 19.6 mph - N/A   Scattered Clouds
7:55 AM 51.8 °F - 21.2 °F 30% 29.87 in 10.0 mi SSE 18.4 mph - N/A   Clear
8:15 AM 53.6 °F - 21.2 °F 28% 29.86 in 10.0 mi SSE 21.9 mph 25.3 mph N/A   Clear
8:35 AM 53.6 °F - 23.0 °F 30% 29.86 in 10.0 mi SSE 18.4 mph - N/A   Clear
8:55 AM 55.4 °F - 23.0 °F 29% 29.85 in 10.0 mi South 18.4 mph 26.5 mph N/A   Clear
9:15 AM 55.4 °F - 24.8 °F 31% 29.83 in 10.0 mi South 21.9 mph 25.3 mph N/A   Clear
9:35 AM 57.2 °F - 26.6 °F 31% 29.83 in 10.0 mi SSE 19.6 mph 25.3 mph N/A   Clear
9:55 AM 59.0 °F - 28.4 °F 31% 29.81 in 10.0 mi SSE 23.0 mph 29.9 mph N/A   Clear
10:15 AM 60.8 °F - 30.2 °F 31% 29.80 in 10.0 mi SSE 21.9 mph 27.6 mph N/A   Clear
10:35 AM 62.6 °F - 30.2 °F 30% 29.78 in 10.0 mi South 21.9 mph 27.6 mph N/A   Clear
10:55 AM 62.6 °F - 32.0 °F 32% 29.77 in 10.0 mi South 18.4 mph 28.8 mph N/A   Clear
11:15 AM 64.4 °F - 32.0 °F 30% 29.76 in 10.0 mi South 19.6 mph 24.2 mph N/A   Clear
11:35 AM 66.2 °F - 32.0 °F 28% 29.75 in 10.0 mi South 20.7 mph 28.8 mph N/A   Clear
11:55 AM 68.0 °F - 33.8 °F 28% 29.74 in 10.0 mi South 27.6 mph 32.2 mph N/A   Clear
12:15 PM 69.8 °F - 33.8 °F 27% 29.74 in 10.0 mi South 23.0 mph 29.9 mph N/A   Clear
12:35 PM 71.6 °F - 37.4 °F 29% 29.77 in 10.0 mi SSW 15.0 mph 26.5 mph N/A   Clear
12:55 PM 71.6 °F - 37.4 °F 29% 29.73 in 10.0 mi SW 20.7 mph 28.8 mph N/A   Clear
1:15 PM 73.4 °F - 37.4 °F 27% 29.72 in 10.0 mi SSW 20.7 mph 24.2 mph N/A   Clear
1:35 PM 75.2 °F - 39.2 °F 27% 29.71 in 10.0 mi South 15.0 mph 25.3 mph N/A   Clear
1:55 PM 77.0 °F - 39.2 °F 26% 29.70 in 10.0 mi SW 18.4 mph 24.2 mph N/A   Clear
2:15 PM 78.8 °F - 41.0 °F 26% 29.69 in 10.0 mi SW 16.1 mph 21.9 mph N/A   Clear
2:35 PM 78.8 °F - 41.0 °F 26% 29.68 in 10.0 mi SW 12.7 mph 20.7 mph N/A   Clear
3:15 PM 82.4 °F - 37.4 °F 20% 29.67 in 10.0 mi WSW 10.4 mph 21.9 mph N/A   Clear
3:35 PM 82.4 °F - 37.4 °F 20% 29.64 in 10.0 mi SW 16.1 mph - N/A   Clear
3:55 PM 84.2 °F - 37.4 °F 19% 29.63 in 10.0 mi SW 10.4 mph 16.1 mph N/A   Clear
4:15 PM 86.0 °F - 37.4 °F 18% 29.61 in 10.0 mi SW 13.8 mph - N/A   Clear
4:35 PM 87.8 °F - 37.4 °F 17% 29.60 in 10.0 mi SW 13.8 mph 23.0 mph N/A   Clear
4:55 PM 89.6 °F - 32.0 °F 13% 29.58 in 10.0 mi WNW 29.9 mph 36.8 mph N/A   Clear
5:15 PM 89.6 °F - 32.0 °F 13% 29.59 in 10.0 mi WNW 25.3 mph 32.2 mph N/A   Clear
5:35 PM 89.6 °F - 30.2 °F 12% 29.59 in 10.0 mi NW 24.2 mph 34.5 mph N/A   Clear
5:55 PM 89.6 °F - 32.0 °F 13% 29.59 in 10.0 mi NW 21.9 mph 35.7 mph N/A   Clear
6:15 PM 89.6 °F - 32.0 °F 13% 29.60 in 10.0 mi NW 26.5 mph 33.4 mph N/A   Clear
6:35 PM 87.8 °F - 30.2 °F 13% 29.60 in 10.0 mi NW 20.7 mph 33.4 mph N/A   Clear
6:55 PM 87.8 °F - 30.2 °F 13% 29.60 in 10.0 mi WNW 27.6 mph 33.4 mph N/A   Clear
7:15 PM 86.0 °F - 30.2 °F 13% 29.61 in 10.0 mi WNW 25.3 mph 32.2 mph N/A   Clear
7:35 PM 86.0 °F - 32.0 °F 14% 29.61 in 10.0 mi NW 23.0 mph 28.8 mph N/A   Clear
7:55 PM 84.2 °F - 32.0 °F 15% 29.62 in 10.0 mi NW 18.4 mph 27.6 mph N/A   Clear
8:15 PM 80.6 °F - 32.0 °F 17% 29.62 in 10.0 mi NW 15.0 mph - N/A   Clear
8:35 PM 78.8 °F - 33.8 °F 20% 29.63 in 10.0 mi NW 12.7 mph - N/A   Clear
8:55 PM 77.0 °F - 33.8 °F 21% 29.64 in 10.0 mi NW 11.5 mph - N/A   Clear
9:15 PM 73.4 °F - 33.8 °F 23% 29.64 in 10.0 mi NW 10.4 mph - N/A   Clear
9:35 PM 71.6 °F - 33.8 °F 25% 29.65 in 10.0 mi NW 9.2 mph - N/A   Clear
9:55 PM 71.6 °F - 33.8 °F 25% 29.65 in 10.0 mi NNW 9.2 mph - N/A   Clear
10:15 PM 69.8 °F - 33.8 °F 27% 29.65 in 10.0 mi NNW 6.9 mph - N/A   Clear
10:35 PM 64.4 °F - 32.0 °F 30% 29.65 in 10.0 mi NW 5.8 mph - N/A   Clear
10:55 PM 62.6 °F - 32.0 °F 32% 29.66 in 10.0 mi WNW 5.8 mph - N/A   Clear
11:15 PM 60.8 °F - 33.8 °F 36% 29.66 in 10.0 mi WSW 5.8 mph - N/A   Clear
11:35 PM 59.0 °F - 33.8 °F 39% 29.66 in 10.0 mi WSW 4.6 mph - N/A   Clear
11:55 PM 59.0 °F - 33.8 °F 39% 29.66 in 10.0 mi Calm Calm - N/A   Clear